Terminal Aerodrome Forecast
Issued by NWS

Home | Current Version | Previous Version | Text Only | Print | Product List | Glossary On
Versions: 1 2 3 4 5 6 7 8 9 10 11 12
800
FTUS42 KMLB 161736
TAFTIX
TAF
KTIX 161736Z 1618/1718 08008KT P6SM VCSH SCT035
     FM170000 06005KT P6SM SCT030 SCT060 BKN250
     FM170600 02004KT P6SM VCSH SCT025 SCT100 BKN250
     FM170900 02007KT P6SM VCSH BKN025
     FM171300 02010KT P6SM VCSH SCT015 OVC025
      TEMPO 1713/1717 3SM SHRA BKN015=

USA.gov is the U.S. government's official web portal to all federal, state and local government web resources and services.